sensor_id;sensor_type;location;lat;lon;timestamp;P1;durP1;ratioP1;P2;durP2;ratioP2
21513;SDS011;10918;48.102;11.636;2023-03-31T00:01:47;6.85;;;4.13;;
21513;SDS011;10918;48.102;11.636;2023-03-31T00:04:13;7.20;;;4.20;;
21513;SDS011;10918;48.102;11.636;2023-03-31T00:06:40;5.15;;;3.88;;
21513;SDS011;10918;48.102;11.636;2023-03-31T00:09:08;8.48;;;4.40;;
21513;SDS011;10918;48.102;11.636;2023-03-31T00:11:35;6.03;;;4.22;;
21513;SDS011;10918;48.102;11.636;2023-03-31T00:14:01;7.25;;;4.30;;
21513;SDS011;10918;48.102;11.636;2023-03-31T00:16:28;5.60;;;3.92;;
21513;SDS011;10918;48.102;11.636;2023-03-31T00:18:54;8.13;;;3.58;;
21513;SDS011;10918;48.102;11.636;2023-03-31T00:21:21;7.40;;;4.25;;
21513;SDS011;10918;48.102;11.636;2023-03-31T00:23:54;5.78;;;3.97;;
21513;SDS011;10918;48.102;11.636;2023-03-31T00:26:20;7.70;;;4.07;;
21513;SDS011;10918;48.102;11.636;2023-03-31T00:28:47;8.05;;;4.50;;
21513;SDS011;10918;48.102;11.636;2023-03-31T00:31:14;5.75;;;4.05;;
21513;SDS011;10918;48.102;11.636;2023-03-31T00:33:40;7.07;;;4.50;;
21513;SDS011;10918;48.102;11.636;2023-03-31T00:36:06;5.72;;;4.25;;
21513;SDS011;10918;48.102;11.636;2023-03-31T00:38:33;7.25;;;4.45;;
21513;SDS011;10918;48.102;11.636;2023-03-31T00:40:59;7.30;;;4.65;;
21513;SDS011;10918;48.102;11.636;2023-03-31T00:43:27;6.30;;;5.13;;
21513;SDS011;10918;48.102;11.636;2023-03-31T00:45:54;7.72;;;4.38;;
21513;SDS011;10918;48.102;11.636;2023-03-31T00:48:20;7.47;;;5.03;;
21513;SDS011;10918;48.102;11.636;2023-03-31T00:50:50;8.05;;;4.85;;
21513;SDS011;10918;48.102;11.636;2023-03-31T00:53:18;6.40;;;4.32;;
21513;SDS011;10918;48.102;11.636;2023-03-31T00:55:48;5.88;;;4.65;;
21513;SDS011;10918;48.102;11.636;2023-03-31T00:58:15;9.13;;;5.35;;
21513;SDS011;10918;48.102;11.636;2023-03-31T01:00:44;7.60;;;4.47;;
21513;SDS011;10918;48.102;11.636;2023-03-31T01:03:12;7.78;;;4.93;;
21513;SDS011;10918;48.102;11.636;2023-03-31T01:05:41;8.98;;;5.28;;
21513;SDS011;10918;48.102;11.636;2023-03-31T01:08:07;7.30;;;4.75;;
21513;SDS011;10918;48.102;11.636;2023-03-31T01:10:35;8.73;;;4.45;;
21513;SDS011;10918;48.102;11.636;2023-03-31T01:13:05;6.07;;;4.57;;
21513;SDS011;10918;48.102;11.636;2023-03-31T01:15:32;8.13;;;5.13;;
21513;SDS011;10918;48.102;11.636;2023-03-31T01:17:58;6.47;;;4.80;;
21513;SDS011;10918;48.102;11.636;2023-03-31T01:23:01;8.18;;;5.68;;
21513;SDS011;10918;48.102;11.636;2023-03-31T01:33:08;8.50;;;4.80;;
21513;SDS011;10918;48.102;11.636;2023-03-31T01:38:26;8.27;;;4.85;;
21513;SDS011;10918;48.102;11.636;2023-03-31T01:46:13;7.55;;;4.80;;
21513;SDS011;10918;48.102;11.636;2023-03-31T01:51:39;9.23;;;4.57;;
21513;SDS011;10918;48.102;11.636;2023-03-31T01:56:42;10.52;;;5.25;;
21513;SDS011;10918;48.102;11.636;2023-03-31T01:59:12;10.73;;;5.07;;
21513;SDS011;10918;48.102;11.636;2023-03-31T02:04:51;7.82;;;4.70;;
21513;SDS011;10918;48.102;11.636;2023-03-31T02:07:02;5.95;;;4.53;;
21513;SDS011;10918;48.102;11.636;2023-03-31T02:09:30;8.23;;;5.18;;
21513;SDS011;10918;48.102;11.636;2023-03-31T02:11:58;6.40;;;4.38;;
21513;SDS011;10918;48.102;11.636;2023-03-31T02:14:25;7.80;;;4.35;;
21513;SDS011;10918;48.102;11.636;2023-03-31T02:16:54;5.78;;;4.30;;
21513;SDS011;10918;48.102;11.636;2023-03-31T02:19:22;5.82;;;4.13;;
21513;SDS011;10918;48.102;11.636;2023-03-31T02:21:49;5.90;;;4.43;;
21513;SDS011;10918;48.102;11.636;2023-03-31T02:24:16;8.05;;;4.50;;
21513;SDS011;10918;48.102;11.636;2023-03-31T02:26:48;5.65;;;4.40;;
21513;SDS011;10918;48.102;11.636;2023-03-31T02:29:16;6.47;;;4.72;;
21513;SDS011;10918;48.102;11.636;2023-03-31T02:31:52;6.22;;;4.93;;
21513;SDS011;10918;48.102;11.636;2023-03-31T02:34:21;6.15;;;4.72;;
21513;SDS011;10918;48.102;11.636;2023-03-31T02:36:48;7.60;;;4.80;;
21513;SDS011;10918;48.102;11.636;2023-03-31T02:39:15;8.40;;;5.05;;
21513;SDS011;10918;48.102;11.636;2023-03-31T02:41:42;7.05;;;4.90;;
21513;SDS011;10918;48.102;11.636;2023-03-31T02:44:09;8.18;;;4.88;;
21513;SDS011;10918;48.102;11.636;2023-03-31T02:46:35;5.90;;;4.28;;
21513;SDS011;10918;48.102;11.636;2023-03-31T02:49:03;8.05;;;5.20;;
21513;SDS011;10918;48.102;11.636;2023-03-31T02:51:43;6.68;;;4.55;;
21513;SDS011;10918;48.102;11.636;2023-03-31T03:04:32;7.55;;;5.05;;
21513;SDS011;10918;48.102;11.636;2023-03-31T03:07:02;7.40;;;4.50;;
21513;SDS011;10918;48.102;11.636;2023-03-31T03:17:11;7.00;;;4.60;;
21513;SDS011;10918;48.102;11.636;2023-03-31T03:19:40;6.10;;;4.30;;
21513;SDS011;10918;48.102;11.636;2023-03-31T03:22:06;8.73;;;4.07;;
21513;SDS011;10918;48.102;11.636;2023-03-31T03:24:32;7.70;;;5.13;;
21513;SDS011;10918;48.102;11.636;2023-03-31T03:26:59;6.00;;;4.85;;
21513;SDS011;10918;48.102;11.636;2023-03-31T03:29:25;8.88;;;4.72;;
21513;SDS011;10918;48.102;11.636;2023-03-31T03:31:52;9.15;;;5.28;;
21513;SDS011;10918;48.102;11.636;2023-03-31T03:34:18;6.00;;;4.32;;
21513;SDS011;10918;48.102;11.636;2023-03-31T03:36:45;7.90;;;4.60;;
21513;SDS011;10918;48.102;11.636;2023-03-31T03:39:11;7.40;;;4.25;;
21513;SDS011;10918;48.102;11.636;2023-03-31T03:41:37;7.85;;;4.90;;
21513;SDS011;10918;48.102;11.636;2023-03-31T03:44:03;6.93;;;4.63;;
21513;SDS011;10918;48.102;11.636;2023-03-31T03:46:29;5.88;;;4.28;;
21513;SDS011;10918;48.102;11.636;2023-03-31T03:48:56;6.78;;;4.38;;
21513;SDS011;10918;48.102;11.636;2023-03-31T03:51:22;8.18;;;4.60;;
21513;SDS011;10918;48.102;11.636;2023-03-31T03:53:48;9.25;;;4.95;;
21513;SDS011;10918;48.102;11.636;2023-03-31T03:56:14;7.18;;;4.22;;
21513;SDS011;10918;48.102;11.636;2023-03-31T03:58:40;5.78;;;4.20;;
21513;SDS011;10918;48.102;11.636;2023-03-31T04:01:06;6.43;;;4.15;;
21513;SDS011;10918;48.102;11.636;2023-03-31T04:03:32;8.10;;;4.55;;
21513;SDS011;10918;48.102;11.636;2023-03-31T04:05:58;8.15;;;4.55;;
21513;SDS011;10918;48.102;11.636;2023-03-31T04:08:24;8.70;;;5.85;;
21513;SDS011;10918;48.102;11.636;2023-03-31T04:10:50;10.15;;;5.90;;
21513;SDS011;10918;48.102;11.636;2023-03-31T04:13:16;8.35;;;5.80;;
21513;SDS011;10918;48.102;11.636;2023-03-31T04:15:43;8.13;;;5.10;;
21513;SDS011;10918;48.102;11.636;2023-03-31T04:18:09;8.55;;;4.97;;
21513;SDS011;10918;48.102;11.636;2023-03-31T04:20:42;6.68;;;4.80;;
21513;SDS011;10918;48.102;11.636;2023-03-31T04:23:09;9.57;;;4.97;;
21513;SDS011;10918;48.102;11.636;2023-03-31T04:25:34;9.35;;;5.47;;
21513;SDS011;10918;48.102;11.636;2023-03-31T04:28:03;7.15;;;4.95;;
21513;SDS011;10918;48.102;11.636;2023-03-31T04:30:31;7.50;;;5.38;;
21513;SDS011;10918;48.102;11.636;2023-03-31T04:32:58;7.53;;;4.88;;
21513;SDS011;10918;48.102;11.636;2023-03-31T04:35:25;8.27;;;5.50;;
21513;SDS011;10918;48.102;11.636;2023-03-31T04:37:52;10.85;;;5.70;;
21513;SDS011;10918;48.102;11.636;2023-03-31T04:40:23;11.75;;;5.78;;
21513;SDS011;10918;48.102;11.636;2023-03-31T04:42:49;9.27;;;5.60;;
21513;SDS011;10918;48.102;11.636;2023-03-31T04:45:15;8.73;;;5.75;;
21513;SDS011;10918;48.102;11.636;2023-03-31T04:47:41;9.48;;;5.82;;
21513;SDS011;10918;48.102;11.636;2023-03-31T04:50:08;7.47;;;6.50;;
21513;SDS011;10918;48.102;11.636;2023-03-31T04:52:35;7.80;;;6.15;;
21513;SDS011;10918;48.102;11.636;2023-03-31T04:55:01;9.18;;;5.75;;
21513;SDS011;10918;48.102;11.636;2023-03-31T04:57:27;7.28;;;5.72;;
21513;SDS011;10918;48.102;11.636;2023-03-31T04:59:53;8.50;;;5.78;;
21513;SDS011;10918;48.102;11.636;2023-03-31T05:02:19;8.93;;;5.38;;
21513;SDS011;10918;48.102;11.636;2023-03-31T05:04:49;8.38;;;5.55;;
21513;SDS011;10918;48.102;11.636;2023-03-31T05:07:16;6.70;;;5.75;;
21513;SDS011;10918;48.102;11.636;2023-03-31T05:09:42;9.55;;;5.13;;
21513;SDS011;10918;48.102;11.636;2023-03-31T05:12:08;9.45;;;5.68;;
21513;SDS011;10918;48.102;11.636;2023-03-31T05:14:34;9.45;;;5.78;;
21513;SDS011;10918;48.102;11.636;2023-03-31T05:17:00;6.85;;;5.95;;
21513;SDS011;10918;48.102;11.636;2023-03-31T05:19:26;11.40;;;6.10;;
21513;SDS011;10918;48.102;11.636;2023-03-31T05:21:52;8.88;;;5.78;;
21513;SDS011;10918;48.102;11.636;2023-03-31T05:24:18;7.70;;;5.72;;
21513;SDS011;10918;48.102;11.636;2023-03-31T05:26:45;8.88;;;6.85;;
21513;SDS011;10918;48.102;11.636;2023-03-31T05:29:16;7.82;;;6.05;;
21513;SDS011;10918;48.102;11.636;2023-03-31T05:31:42;8.85;;;5.50;;
21513;SDS011;10918;48.102;11.636;2023-03-31T05:34:08;9.65;;;6.18;;
21513;SDS011;10918;48.102;11.636;2023-03-31T05:36:34;9.32;;;5.80;;
21513;SDS011;10918;48.102;11.636;2023-03-31T05:39:01;8.73;;;5.90;;
21513;SDS011;10918;48.102;11.636;2023-03-31T05:41:27;9.82;;;5.97;;
21513;SDS011;10918;48.102;11.636;2023-03-31T05:43:53;10.07;;;6.47;;
21513;SDS011;10918;48.102;11.636;2023-03-31T05:46:19;11.35;;;5.93;;
21513;SDS011;10918;48.102;11.636;2023-03-31T05:48:45;7.78;;;6.00;;
21513;SDS011;10918;48.102;11.636;2023-03-31T05:51:11;10.50;;;6.35;;
21513;SDS011;10918;48.102;11.636;2023-03-31T05:53:37;9.40;;;5.93;;
21513;SDS011;10918;48.102;11.636;2023-03-31T05:56:04;9.57;;;5.82;;
21513;SDS011;10918;48.102;11.636;2023-03-31T05:58:32;9.13;;;5.45;;
21513;SDS011;10918;48.102;11.636;2023-03-31T06:01:03;9.35;;;6.40;;
21513;SDS011;10918;48.102;11.636;2023-03-31T06:03:30;9.02;;;5.82;;
21513;SDS011;10918;48.102;11.636;2023-03-31T06:05:56;10.02;;;6.03;;
21513;SDS011;10918;48.102;11.636;2023-03-31T06:08:22;11.65;;;6.28;;
21513;SDS011;10918;48.102;11.636;2023-03-31T06:10:48;11.15;;;6.13;;
21513;SDS011;10918;48.102;11.636;2023-03-31T06:13:15;9.30;;;6.13;;
21513;SDS011;10918;48.102;11.636;2023-03-31T06:15:41;10.25;;;5.72;;
21513;SDS011;10918;48.102;11.636;2023-03-31T06:18:07;9.90;;;5.45;;
21513;SDS011;10918;48.102;11.636;2023-03-31T06:20:34;9.57;;;5.63;;
21513;SDS011;10918;48.102;11.636;2023-03-31T06:23:01;10.30;;;5.53;;
21513;SDS011;10918;48.102;11.636;2023-03-31T06:25:27;6.20;;;5.13;;
21513;SDS011;10918;48.102;11.636;2023-03-31T06:27:53;8.68;;;5.28;;
21513;SDS011;10918;48.102;11.636;2023-03-31T06:30:19;5.57;;;4.60;;
21513;SDS011;10918;48.102;11.636;2023-03-31T06:32:45;9.43;;;5.32;;
21513;SDS011;10918;48.102;11.636;2023-03-31T06:35:11;8.80;;;5.53;;
21513;SDS011;10918;48.102;11.636;2023-03-31T06:37:37;7.18;;;4.85;;
21513;SDS011;10918;48.102;11.636;2023-03-31T06:40:03;6.85;;;4.72;;
21513;SDS011;10918;48.102;11.636;2023-03-31T06:42:29;5.63;;;4.25;;
21513;SDS011;10918;48.102;11.636;2023-03-31T06:44:55;6.78;;;4.70;;
21513;SDS011;10918;48.102;11.636;2023-03-31T06:47:21;8.90;;;4.90;;
21513;SDS011;10918;48.102;11.636;2023-03-31T06:49:47;8.30;;;4.80;;
21513;SDS011;10918;48.102;11.636;2023-03-31T06:52:13;8.15;;;4.97;;
21513;SDS011;10918;48.102;11.636;2023-03-31T06:54:40;6.15;;;4.07;;
21513;SDS011;10918;48.102;11.636;2023-03-31T06:57:06;6.10;;;4.13;;
21513;SDS011;10918;48.102;11.636;2023-03-31T06:59:32;6.82;;;4.03;;
21513;SDS011;10918;48.102;11.636;2023-03-31T07:01:58;7.22;;;4.97;;
21513;SDS011;10918;48.102;11.636;2023-03-31T07:04:24;8.70;;;4.50;;
21513;SDS011;10918;48.102;11.636;2023-03-31T07:06:50;8.25;;;4.57;;
21513;SDS011;10918;48.102;11.636;2023-03-31T07:09:16;6.22;;;4.38;;
21513;SDS011;10918;48.102;11.636;2023-03-31T07:11:42;7.53;;;4.18;;
21513;SDS011;10918;48.102;11.636;2023-03-31T07:14:08;8.20;;;4.82;;
21513;SDS011;10918;48.102;11.636;2023-03-31T07:16:34;7.60;;;4.85;;
21513;SDS011;10918;48.102;11.636;2023-03-31T07:19:00;7.80;;;4.63;;
21513;SDS011;10918;48.102;11.636;2023-03-31T07:21:27;9.38;;;5.80;;
21513;SDS011;10918;48.102;11.636;2023-03-31T07:23:53;15.07;;;5.53;;
21513;SDS011;10918;48.102;11.636;2023-03-31T07:26:19;9.43;;;5.30;;
21513;SDS011;10918;48.102;11.636;2023-03-31T07:28:46;8.43;;;4.80;;
21513;SDS011;10918;48.102;11.636;2023-03-31T07:31:12;9.13;;;5.40;;
21513;SDS011;10918;48.102;11.636;2023-03-31T07:33:39;8.32;;;4.60;;
21513;SDS011;10918;48.102;11.636;2023-03-31T07:36:05;6.80;;;4.55;;
21513;SDS011;10918;48.102;11.636;2023-03-31T07:38:31;9.45;;;5.07;;
21513;SDS011;10918;48.102;11.636;2023-03-31T07:40:57;9.52;;;5.70;;
21513;SDS011;10918;48.102;11.636;2023-03-31T07:43:23;9.65;;;5.15;;
21513;SDS011;10918;48.102;11.636;2023-03-31T07:45:49;11.38;;;5.35;;
21513;SDS011;10918;48.102;11.636;2023-03-31T07:48:15;7.90;;;5.10;;
21513;SDS011;10918;48.102;11.636;2023-03-31T07:50:41;8.05;;;5.18;;
21513;SDS011;10918;48.102;11.636;2023-03-31T07:53:07;7.82;;;5.30;;
21513;SDS011;10918;48.102;11.636;2023-03-31T07:55:33;11.93;;;5.50;;
21513;SDS011;10918;48.102;11.636;2023-03-31T07:57:59;8.85;;;4.97;;
21513;SDS011;10918;48.102;11.636;2023-03-31T08:00:25;7.47;;;5.22;;
21513;SDS011;10918;48.102;11.636;2023-03-31T08:02:51;10.52;;;5.35;;
21513;SDS011;10918;48.102;11.636;2023-03-31T08:05:18;11.38;;;5.28;;
21513;SDS011;10918;48.102;11.636;2023-03-31T08:07:45;6.97;;;5.28;;
21513;SDS011;10918;48.102;11.636;2023-03-31T08:10:14;8.68;;;5.40;;
21513;SDS011;10918;48.102;11.636;2023-03-31T08:12:40;10.68;;;8.25;;
21513;SDS011;10918;48.102;11.636;2023-03-31T08:15:06;9.48;;;6.00;;
21513;SDS011;10918;48.102;11.636;2023-03-31T08:17:33;8.57;;;5.13;;
21513;SDS011;10918;48.102;11.636;2023-03-31T08:19:59;6.95;;;4.78;;
21513;SDS011;10918;48.102;11.636;2023-03-31T08:22:25;6.13;;;5.00;;
21513;SDS011;10918;48.102;11.636;2023-03-31T08:24:51;9.68;;;5.88;;
21513;SDS011;10918;48.102;11.636;2023-03-31T08:27:17;10.80;;;7.63;;
21513;SDS011;10918;48.102;11.636;2023-03-31T08:29:43;9.23;;;5.15;;
21513;SDS011;10918;48.102;11.636;2023-03-31T08:32:09;7.53;;;5.13;;
21513;SDS011;10918;48.102;11.636;2023-03-31T08:34:35;8.68;;;5.35;;
21513;SDS011;10918;48.102;11.636;2023-03-31T08:37:02;6.82;;;5.10;;
21513;SDS011;10918;48.102;11.636;2023-03-31T08:39:28;8.00;;;5.15;;
21513;SDS011;10918;48.102;11.636;2023-03-31T08:41:59;10.20;;;6.28;;
21513;SDS011;10918;48.102;11.636;2023-03-31T08:44:30;10.00;;;6.78;;
21513;SDS011;10918;48.102;11.636;2023-03-31T08:46:59;7.22;;;5.25;;
21513;SDS011;10918;48.102;11.636;2023-03-31T08:49:26;7.60;;;4.88;;
21513;SDS011;10918;48.102;11.636;2023-03-31T08:52:01;9.00;;;5.35;;
21513;SDS011;10918;48.102;11.636;2023-03-31T08:54:30;9.50;;;5.70;;
21513;SDS011;10918;48.102;11.636;2023-03-31T08:56:56;7.60;;;4.82;;
21513;SDS011;10918;48.102;11.636;2023-03-31T08:59:25;8.25;;;5.43;;
21513;SDS011;10918;48.102;11.636;2023-03-31T09:01:58;8.00;;;4.82;;
21513;SDS011;10918;48.102;11.636;2023-03-31T09:12:06;15.18;;;9.50;;
21513;SDS011;10918;48.102;11.636;2023-03-31T09:19:35;5.30;;;3.90;;
21513;SDS011;10918;48.102;11.636;2023-03-31T09:22:02;6.15;;;3.28;;
21513;SDS011;10918;48.102;11.636;2023-03-31T09:24:31;7.03;;;3.47;;
21513;SDS011;10918;48.102;11.636;2023-03-31T09:27:00;7.40;;;3.97;;
21513;SDS011;10918;48.102;11.636;2023-03-31T09:29:31;7.32;;;4.05;;
21513;SDS011;10918;48.102;11.636;2023-03-31T09:32:01;6.40;;;4.03;;
21513;SDS011;10918;48.102;11.636;2023-03-31T09:34:32;3.10;;;2.83;;
21513;SDS011;10918;48.102;11.636;2023-03-31T09:37:00;5.10;;;3.22;;
21513;SDS011;10918;48.102;11.636;2023-03-31T09:39:26;4.85;;;2.70;;
21513;SDS011;10918;48.102;11.636;2023-03-31T09:41:52;3.80;;;2.67;;
21513;SDS011;10918;48.102;11.636;2023-03-31T09:44:26;3.95;;;2.47;;
21513;SDS011;10918;48.102;11.636;2023-03-31T09:46:53;4.00;;;3.10;;
21513;SDS011;10918;48.102;11.636;2023-03-31T09:49:20;5.25;;;2.72;;
21513;SDS011;10918;48.102;11.636;2023-03-31T09:51:48;7.10;;;3.28;;
21513;SDS011;10918;48.102;11.636;2023-03-31T09:54:36;3.90;;;2.72;;
21513;SDS011;10918;48.102;11.636;2023-03-31T09:57:11;5.15;;;3.03;;
21513;SDS011;10918;48.102;11.636;2023-03-31T09:59:37;4.90;;;2.60;;
21513;SDS011;10918;48.102;11.636;2023-03-31T10:02:24;3.88;;;2.45;;
21513;SDS011;10918;48.102;11.636;2023-03-31T10:04:53;3.78;;;2.80;;
21513;SDS011;10918;48.102;11.636;2023-03-31T10:07:22;3.50;;;2.75;;
21513;SDS011;10918;48.102;11.636;2023-03-31T10:09:50;6.20;;;2.80;;
21513;SDS011;10918;48.102;11.636;2023-03-31T10:12:18;5.55;;;2.70;;
21513;SDS011;10918;48.102;11.636;2023-03-31T10:14:49;4.00;;;2.50;;
21513;SDS011;10918;48.102;11.636;2023-03-31T10:17:19;4.32;;;2.35;;
21513;SDS011;10918;48.102;11.636;2023-03-31T10:22:37;3.28;;;2.15;;
21513;SDS011;10918;48.102;11.636;2023-03-31T10:25:14;4.43;;;2.30;;
21513;SDS011;10918;48.102;11.636;2023-03-31T10:27:41;3.97;;;2.17;;
21513;SDS011;10918;48.102;11.636;2023-03-31T10:30:09;3.15;;;2.30;;
21513;SDS011;10918;48.102;11.636;2023-03-31T10:32:40;4.13;;;2.30;;
21513;SDS011;10918;48.102;11.636;2023-03-31T10:37:33;2.95;;;2.30;;
21513;SDS011;10918;48.102;11.636;2023-03-31T10:40:04;2.97;;;2.30;;
21513;SDS011;10918;48.102;11.636;2023-03-31T10:42:37;4.78;;;2.60;;
21513;SDS011;10918;48.102;11.636;2023-03-31T10:47:48;4.60;;;2.55;;
21513;SDS011;10918;48.102;11.636;2023-03-31T10:50:14;4.50;;;2.20;;
21513;SDS011;10918;48.102;11.636;2023-03-31T10:52:45;3.42;;;2.00;;
21513;SDS011;10918;48.102;11.636;2023-03-31T10:55:12;4.20;;;2.40;;
21513;SDS011;10918;48.102;11.636;2023-03-31T10:57:57;4.75;;;2.65;;
21513;SDS011;10918;48.102;11.636;2023-03-31T11:05:50;4.00;;;2.75;;
21513;SDS011;10918;48.102;11.636;2023-03-31T11:11:17;4.45;;;2.70;;
21513;SDS011;10918;48.102;11.636;2023-03-31T11:13:49;2.88;;;2.38;;
21513;SDS011;10918;48.102;11.636;2023-03-31T11:19:13;7.55;;;3.47;;
21513;SDS011;10918;48.102;11.636;2023-03-31T11:21:48;4.55;;;3.30;;
21513;SDS011;10918;48.102;11.636;2023-03-31T11:40:14;3.13;;;2.05;;
21513;SDS011;10918;48.102;11.636;2023-03-31T11:45:17;3.38;;;1.60;;
21513;SDS011;10918;48.102;11.636;2023-03-31T11:47:44;3.58;;;1.25;;
21513;SDS011;10918;48.102;11.636;2023-03-31T11:50:13;2.53;;;1.23;;
21513;SDS011;10918;48.102;11.636;2023-03-31T11:52:43;2.60;;;1.52;;
21513;SDS011;10918;48.102;11.636;2023-03-31T11:57:40;2.60;;;1.65;;
21513;SDS011;10918;48.102;11.636;2023-03-31T12:05:25;3.65;;;1.52;;
21513;SDS011;10918;48.102;11.636;2023-03-31T12:08:10;3.30;;;2.88;;
21513;SDS011;10918;48.102;11.636;2023-03-31T12:10:38;6.20;;;4.00;;
21513;SDS011;10918;48.102;11.636;2023-03-31T12:15:36;1.80;;;0.98;;
21513;SDS011;10918;48.102;11.636;2023-03-31T12:18:23;1.48;;;0.90;;
21513;SDS011;10918;48.102;11.636;2023-03-31T12:20:51;2.65;;;1.20;;
21513;SDS011;10918;48.102;11.636;2023-03-31T12:23:19;2.35;;;1.23;;
21513;SDS011;10918;48.102;11.636;2023-03-31T12:25:56;2.13;;;1.27;;
21513;SDS011;10918;48.102;11.636;2023-03-31T12:28:25;2.65;;;1.20;;
21513;SDS011;10918;48.102;11.636;2023-03-31T12:30:52;1.08;;;0.95;;
21513;SDS011;10918;48.102;11.636;2023-03-31T12:33:24;1.88;;;1.00;;
21513;SDS011;10918;48.102;11.636;2023-03-31T12:36:02;2.90;;;1.60;;
21513;SDS011;10918;48.102;11.636;2023-03-31T12:41:11;2.17;;;1.30;;
21513;SDS011;10918;48.102;11.636;2023-03-31T12:59:18;2.88;;;1.70;;
21513;SDS011;10918;48.102;11.636;2023-03-31T13:04:34;4.72;;;1.90;;
21513;SDS011;10918;48.102;11.636;2023-03-31T13:07:04;1.70;;;1.20;;
21513;SDS011;10918;48.102;11.636;2023-03-31T13:09:46;3.30;;;1.70;;
21513;SDS011;10918;48.102;11.636;2023-03-31T13:12:17;4.32;;;1.33;;
21513;SDS011;10918;48.102;11.636;2023-03-31T13:14:45;2.60;;;1.00;;
21513;SDS011;10918;48.102;11.636;2023-03-31T13:17:13;1.85;;;0.80;;
21513;SDS011;10918;48.102;11.636;2023-03-31T13:19:45;1.85;;;1.15;;
21513;SDS011;10918;48.102;11.636;2023-03-31T13:22:31;3.40;;;0.75;;
21513;SDS011;10918;48.102;11.636;2023-03-31T13:27:48;3.78;;;0.85;;
21513;SDS011;10918;48.102;11.636;2023-03-31T13:33:46;1.33;;;0.60;;
21513;SDS011;10918;48.102;11.636;2023-03-31T13:35:50;1.70;;;1.10;;
21513;SDS011;10918;48.102;11.636;2023-03-31T13:41:07;1.90;;;0.73;;
21513;SDS011;10918;48.102;11.636;2023-03-31T13:46:37;2.33;;;0.50;;
21513;SDS011;10918;48.102;11.636;2023-03-31T13:56:50;1.27;;;0.63;;
21513;SDS011;10918;48.102;11.636;2023-03-31T14:05:03;1.45;;;0.80;;
21513;SDS011;10918;48.102;11.636;2023-03-31T14:07:44;4.18;;;0.90;;
21513;SDS011;10918;48.102;11.636;2023-03-31T14:10:24;1.90;;;0.90;;
21513;SDS011;10918;48.102;11.636;2023-03-31T14:12:51;3.35;;;0.73;;
21513;SDS011;10918;48.102;11.636;2023-03-31T14:15:18;1.58;;;0.80;;
21513;SDS011;10918;48.102;11.636;2023-03-31T14:17:45;3.53;;;0.80;;
21513;SDS011;10918;48.102;11.636;2023-03-31T14:23:05;3.20;;;1.38;;
21513;SDS011;10918;48.102;11.636;2023-03-31T14:25:35;2.08;;;1.10;;
21513;SDS011;10918;48.102;11.636;2023-03-31T14:30:52;4.03;;;1.05;;
21513;SDS011;10918;48.102;11.636;2023-03-31T14:33:31;4.05;;;1.67;;
21513;SDS011;10918;48.102;11.636;2023-03-31T14:38:44;4.93;;;2.75;;
21513;SDS011;10918;48.102;11.636;2023-03-31T14:41:19;2.90;;;1.20;;
21513;SDS011;10918;48.102;11.636;2023-03-31T14:43:53;2.53;;;1.20;;
21513;SDS011;10918;48.102;11.636;2023-03-31T14:46:20;3.05;;;0.90;;
21513;SDS011;10918;48.102;11.636;2023-03-31T14:48:47;1.67;;;0.80;;
21513;SDS011;10918;48.102;11.636;2023-03-31T14:51:16;5.78;;;0.60;;
21513;SDS011;10918;48.102;11.636;2023-03-31T14:53:42;0.70;;;0.30;;
21513;SDS011;10918;48.102;11.636;2023-03-31T14:56:13;0.80;;;0.50;;
21513;SDS011;10918;48.102;11.636;2023-03-31T14:58:44;2.30;;;0.80;;
21513;SDS011;10918;48.102;11.636;2023-03-31T15:01:13;0.88;;;0.40;;
21513;SDS011;10918;48.102;11.636;2023-03-31T15:03:41;0.52;;;0.38;;
21513;SDS011;10918;48.102;11.636;2023-03-31T15:06:07;1.20;;;0.40;;
21513;SDS011;10918;48.102;11.636;2023-03-31T15:08:34;1.92;;;0.50;;
21513;SDS011;10918;48.102;11.636;2023-03-31T15:11:02;0.63;;;0.52;;
21513;SDS011;10918;48.102;11.636;2023-03-31T15:13:33;0.57;;;0.47;;
21513;SDS011;10918;48.102;11.636;2023-03-31T15:16:18;2.03;;;0.52;;
21513;SDS011;10918;48.102;11.636;2023-03-31T15:18:44;1.08;;;0.68;;
21513;SDS011;10918;48.102;11.636;2023-03-31T15:21:18;1.63;;;0.70;;
21513;SDS011;10918;48.102;11.636;2023-03-31T15:23:45;3.35;;;0.93;;
21513;SDS011;10918;48.102;11.636;2023-03-31T15:26:11;1.00;;;0.50;;
21513;SDS011;10918;48.102;11.636;2023-03-31T15:28:41;0.38;;;0.38;;
21513;SDS011;10918;48.102;11.636;2023-03-31T15:31:12;0.43;;;0.40;;
21513;SDS011;10918;48.102;11.636;2023-03-31T15:33:38;1.75;;;0.57;;
21513;SDS011;10918;48.102;11.636;2023-03-31T15:36:06;2.70;;;0.70;;
21513;SDS011;10918;48.102;11.636;2023-03-31T15:38:32;1.70;;;0.57;;
21513;SDS011;10918;48.102;11.636;2023-03-31T15:40:58;1.15;;;0.65;;
21513;SDS011;10918;48.102;11.636;2023-03-31T15:43:28;4.22;;;0.77;;
21513;SDS011;10918;48.102;11.636;2023-03-31T15:45:56;1.35;;;0.60;;
21513;SDS011;10918;48.102;11.636;2023-03-31T15:48:23;1.30;;;0.60;;
21513;SDS011;10918;48.102;11.636;2023-03-31T15:50:53;1.65;;;0.85;;
21513;SDS011;10918;48.102;11.636;2023-03-31T15:53:36;2.92;;;0.93;;
21513;SDS011;10918;48.102;11.636;2023-03-31T15:56:03;2.85;;;1.10;;
21513;SDS011;10918;48.102;11.636;2023-03-31T16:01:14;3.63;;;0.75;;
21513;SDS011;10918;48.102;11.636;2023-03-31T16:03:41;2.50;;;1.25;;
21513;SDS011;10918;48.102;11.636;2023-03-31T16:06:32;1.17;;;0.77;;
21513;SDS011;10918;48.102;11.636;2023-03-31T16:09:01;1.63;;;0.70;;
21513;SDS011;10918;48.102;11.636;2023-03-31T16:14:21;2.15;;;0.93;;
21513;SDS011;10918;48.102;11.636;2023-03-31T16:16:54;2.15;;;1.00;;
21513;SDS011;10918;48.102;11.636;2023-03-31T16:19:22;2.88;;;1.20;;
21513;SDS011;10918;48.102;11.636;2023-03-31T16:21:50;1.67;;;1.02;;
21513;SDS011;10918;48.102;11.636;2023-03-31T16:24:19;4.28;;;0.98;;
21513;SDS011;10918;48.102;11.636;2023-03-31T16:26:46;3.15;;;0.93;;
21513;SDS011;10918;48.102;11.636;2023-03-31T16:29:19;2.58;;;0.85;;
21513;SDS011;10918;48.102;11.636;2023-03-31T16:31:46;4.15;;;1.45;;
21513;SDS011;10918;48.102;11.636;2023-03-31T16:34:12;2.15;;;1.00;;
21513;SDS011;10918;48.102;11.636;2023-03-31T16:36:41;4.35;;;1.13;;
21513;SDS011;10918;48.102;11.636;2023-03-31T16:39:07;3.35;;;1.13;;
21513;SDS011;10918;48.102;11.636;2023-03-31T16:41:33;2.40;;;1.17;;
21513;SDS011;10918;48.102;11.636;2023-03-31T16:44:00;2.58;;;1.17;;
21513;SDS011;10918;48.102;11.636;2023-03-31T16:46:27;1.95;;;0.98;;
21513;SDS011;10918;48.102;11.636;2023-03-31T16:48:53;2.13;;;0.90;;
21513;SDS011;10918;48.102;11.636;2023-03-31T16:51:19;3.10;;;1.33;;
21513;SDS011;10918;48.102;11.636;2023-03-31T16:53:46;1.92;;;1.30;;
21513;SDS011;10918;48.102;11.636;2023-03-31T16:56:12;1.80;;;1.08;;
21513;SDS011;10918;48.102;11.636;2023-03-31T16:58:39;1.67;;;0.98;;
21513;SDS011;10918;48.102;11.636;2023-03-31T17:01:06;1.63;;;1.17;;
21513;SDS011;10918;48.102;11.636;2023-03-31T17:03:32;1.02;;;0.80;;
21513;SDS011;10918;48.102;11.636;2023-03-31T17:06:03;1.95;;;0.60;;
21513;SDS011;10918;48.102;11.636;2023-03-31T17:08:29;2.72;;;0.80;;
21513;SDS011;10918;48.102;11.636;2023-03-31T17:11:00;1.73;;;1.17;;
21513;SDS011;10918;48.102;11.636;2023-03-31T17:13:27;0.85;;;0.50;;
21513;SDS011;10918;48.102;11.636;2023-03-31T17:15:53;3.35;;;0.60;;
21513;SDS011;10918;48.102;11.636;2023-03-31T17:18:19;0.80;;;0.40;;
21513;SDS011;10918;48.102;11.636;2023-03-31T17:20:46;1.33;;;1.05;;
21513;SDS011;10918;48.102;11.636;2023-03-31T17:23:12;2.78;;;2.00;;
21513;SDS011;10918;48.102;11.636;2023-03-31T17:25:45;0.32;;;0.20;;